sensor_id;sensor_type;location;lat;lon;timestamp;temperature;humidity
48043;DHT22;33988;47.992;8.820;2023-12-20T00:01:46;11.00;51.40
48043;DHT22;33988;47.992;8.820;2023-12-20T00:04:16;11.00;51.40
48043;DHT22;33988;47.992;8.820;2023-12-20T00:06:47;11.00;51.50
48043;DHT22;33988;47.992;8.820;2023-12-20T00:09:17;11.00;51.50
48043;DHT22;33988;47.992;8.820;2023-12-20T00:11:44;11.00;51.60
48043;DHT22;33988;47.992;8.820;2023-12-20T00:14:11;11.00;51.70
48043;DHT22;33988;47.992;8.820;2023-12-20T00:16:38;11.00;51.80
48043;DHT22;33988;47.992;8.820;2023-12-20T00:19:04;11.00;51.90
48043;DHT22;33988;47.992;8.820;2023-12-20T00:21:32;11.00;52.00
48043;DHT22;33988;47.992;8.820;2023-12-20T00:23:58;11.00;52.80
48043;DHT22;33988;47.992;8.820;2023-12-20T00:26:25;11.00;52.20
48043;DHT22;33988;47.992;8.820;2023-12-20T00:28:54;11.00;52.30
48043;DHT22;33988;47.992;8.820;2023-12-20T00:31:24;11.00;52.30
48043;DHT22;33988;47.992;8.820;2023-12-20T00:33:51;11.10;52.40
48043;DHT22;33988;47.992;8.820;2023-12-20T00:36:21;11.00;52.50
48043;DHT22;33988;47.992;8.820;2023-12-20T00:38:52;11.10;52.60
48043;DHT22;33988;47.992;8.820;2023-12-20T00:41:19;11.10;52.60
48043;DHT22;33988;47.992;8.820;2023-12-20T00:43:46;11.10;52.60
48043;DHT22;33988;47.992;8.820;2023-12-20T00:46:16;11.10;52.60
48043;DHT22;33988;47.992;8.820;2023-12-20T00:48:50;11.10;52.70
48043;DHT22;33988;47.992;8.820;2023-12-20T00:51:20;11.00;52.80
48043;DHT22;33988;47.992;8.820;2023-12-20T00:53:47;11.10;52.80
48043;DHT22;33988;47.992;8.820;2023-12-20T00:56:17;11.00;52.90
48043;DHT22;33988;47.992;8.820;2023-12-20T00:58:44;11.00;52.90
48043;DHT22;33988;47.992;8.820;2023-12-20T01:01:10;11.10;53.00
48043;DHT22;33988;47.992;8.820;2023-12-20T01:03:42;11.10;53.10
48043;DHT22;33988;47.992;8.820;2023-12-20T01:06:11;10.90;53.20
48043;DHT22;33988;47.992;8.820;2023-12-20T01:08:38;11.10;53.10
48043;DHT22;33988;47.992;8.820;2023-12-20T01:11:05;11.10;53.10
48043;DHT22;33988;47.992;8.820;2023-12-20T01:13:35;11.10;53.20
48043;DHT22;33988;47.992;8.820;2023-12-20T01:16:02;11.10;53.20
48043;DHT22;33988;47.992;8.820;2023-12-20T01:18:32;11.10;53.30
48043;DHT22;33988;47.992;8.820;2023-12-20T01:21:02;11.10;53.30
48043;DHT22;33988;47.992;8.820;2023-12-20T01:23:34;11.10;53.50
48043;DHT22;33988;47.992;8.820;2023-12-20T01:26:04;11.10;53.50
48043;DHT22;33988;47.992;8.820;2023-12-20T01:28:32;11.10;53.50
48043;DHT22;33988;47.992;8.820;2023-12-20T01:31:01;11.10;53.60
48043;DHT22;33988;47.992;8.820;2023-12-20T01:33:28;11.20;53.70
48043;DHT22;33988;47.992;8.820;2023-12-20T01:35:57;11.20;53.80
48043;DHT22;33988;47.992;8.820;2023-12-20T01:38:24;11.20;53.80
48043;DHT22;33988;47.992;8.820;2023-12-20T01:40:51;11.20;53.90
48043;DHT22;33988;47.992;8.820;2023-12-20T01:43:18;11.20;53.90
48043;DHT22;33988;47.992;8.820;2023-12-20T01:45:49;11.20;53.90
48043;DHT22;33988;47.992;8.820;2023-12-20T01:48:19;11.20;53.90
48043;DHT22;33988;47.992;8.820;2023-12-20T01:50:49;11.30;54.00
48043;DHT22;33988;47.992;8.820;2023-12-20T01:53:17;11.30;54.00
48043;DHT22;33988;47.992;8.820;2023-12-20T01:55:50;11.30;54.00
48043;DHT22;33988;47.992;8.820;2023-12-20T01:58:23;11.30;54.10
48043;DHT22;33988;47.992;8.820;2023-12-20T02:00:52;11.30;54.00
48043;DHT22;33988;47.992;8.820;2023-12-20T02:03:20;11.40;54.10
48043;DHT22;33988;47.992;8.820;2023-12-20T02:05:50;11.40;54.10
48043;DHT22;33988;47.992;8.820;2023-12-20T02:08:17;11.40;54.10
48043;DHT22;33988;47.992;8.820;2023-12-20T02:10:44;11.40;54.00
48043;DHT22;33988;47.992;8.820;2023-12-20T02:13:13;11.40;54.10
48043;DHT22;33988;47.992;8.820;2023-12-20T02:15:41;11.40;54.10
48043;DHT22;33988;47.992;8.820;2023-12-20T02:18:10;11.40;54.10
48043;DHT22;33988;47.992;8.820;2023-12-20T02:20:40;11.50;54.20
48043;DHT22;33988;47.992;8.820;2023-12-20T02:23:07;11.50;54.20
48043;DHT22;33988;47.992;8.820;2023-12-20T02:25:37;11.50;54.20
48043;DHT22;33988;47.992;8.820;2023-12-20T02:28:04;11.50;54.20
48043;DHT22;33988;47.992;8.820;2023-12-20T02:30:32;11.50;54.30
48043;DHT22;33988;47.992;8.820;2023-12-20T02:33:03;11.50;54.20
48043;DHT22;33988;47.992;8.820;2023-12-20T02:35:35;11.50;54.20
48043;DHT22;33988;47.992;8.820;2023-12-20T02:38:04;11.60;54.30
48043;DHT22;33988;47.992;8.820;2023-12-20T02:40:33;11.60;54.30
48043;DHT22;33988;47.992;8.820;2023-12-20T02:43:00;11.60;54.30
48043;DHT22;33988;47.992;8.820;2023-12-20T02:45:27;11.60;54.30
48043;DHT22;33988;47.992;8.820;2023-12-20T02:47:55;11.60;54.30
48043;DHT22;33988;47.992;8.820;2023-12-20T02:50:24;11.70;54.50
48043;DHT22;33988;47.992;8.820;2023-12-20T02:52:51;11.70;54.50
48043;DHT22;33988;47.992;8.820;2023-12-20T02:55:23;11.70;54.50
48043;DHT22;33988;47.992;8.820;2023-12-20T02:57:50;11.70;54.60
48043;DHT22;33988;47.992;8.820;2023-12-20T03:00:17;11.70;54.50
48043;DHT22;33988;47.992;8.820;2023-12-20T03:02:47;11.70;54.50
48043;DHT22;33988;47.992;8.820;2023-12-20T03:05:14;11.70;54.60
48043;DHT22;33988;47.992;8.820;2023-12-20T03:07:44;11.70;54.60
48043;DHT22;33988;47.992;8.820;2023-12-20T03:10:11;11.70;54.60
48043;DHT22;33988;47.992;8.820;2023-12-20T03:12:49;11.70;54.70
48043;DHT22;33988;47.992;8.820;2023-12-20T03:15:16;11.80;54.70
48043;DHT22;33988;47.992;8.820;2023-12-20T03:17:43;11.80;54.70
48043;DHT22;33988;47.992;8.820;2023-12-20T03:20:11;11.80;54.80
48043;DHT22;33988;47.992;8.820;2023-12-20T03:22:41;11.80;54.80
48043;DHT22;33988;47.992;8.820;2023-12-20T03:25:08;11.80;54.90
48043;DHT22;33988;47.992;8.820;2023-12-20T03:27:37;11.80;54.90
48043;DHT22;33988;47.992;8.820;2023-12-20T03:30:06;11.80;55.00
48043;DHT22;33988;47.992;8.820;2023-12-20T03:32:36;11.80;55.00
48043;DHT22;33988;47.992;8.820;2023-12-20T03:35:08;11.80;55.10
48043;DHT22;33988;47.992;8.820;2023-12-20T03:37:36;11.80;55.10
48043;DHT22;33988;47.992;8.820;2023-12-20T03:40:03;11.80;55.10
48043;DHT22;33988;47.992;8.820;2023-12-20T03:42:33;11.80;55.10
48043;DHT22;33988;47.992;8.820;2023-12-20T03:45:00;11.80;55.10
48043;DHT22;33988;47.992;8.820;2023-12-20T03:47:29;11.80;55.20
48043;DHT22;33988;47.992;8.820;2023-12-20T03:49:56;11.80;55.20
48043;DHT22;33988;47.992;8.820;2023-12-20T03:52:26;11.90;55.30
48043;DHT22;33988;47.992;8.820;2023-12-20T03:54:53;11.80;55.20
48043;DHT22;33988;47.992;8.820;2023-12-20T03:57:22;11.80;55.30
48043;DHT22;33988;47.992;8.820;2023-12-20T03:59:51;11.90;55.40
48043;DHT22;33988;47.992;8.820;2023-12-20T04:02:20;11.70;55.70
48043;DHT22;33988;47.992;8.820;2023-12-20T04:04:49;11.80;55.30
48043;DHT22;33988;47.992;8.820;2023-12-20T04:07:19;11.80;55.30
48043;DHT22;33988;47.992;8.820;2023-12-20T04:09:46;11.90;55.40
48043;DHT22;33988;47.992;8.820;2023-12-20T04:12:15;11.90;55.40
48043;DHT22;33988;47.992;8.820;2023-12-20T04:14:42;11.90;55.40
48043;DHT22;33988;47.992;8.820;2023-12-20T04:17:09;11.90;55.50
48043;DHT22;33988;47.992;8.820;2023-12-20T04:19:39;11.90;55.50
48043;DHT22;33988;47.992;8.820;2023-12-20T04:22:06;11.90;55.50
48043;DHT22;33988;47.992;8.820;2023-12-20T04:24:33;11.90;55.50
48043;DHT22;33988;47.992;8.820;2023-12-20T04:27:00;11.90;55.50
48043;DHT22;33988;47.992;8.820;2023-12-20T04:29:30;11.90;55.50
48043;DHT22;33988;47.992;8.820;2023-12-20T04:31:57;11.90;55.50
48043;DHT22;33988;47.992;8.820;2023-12-20T04:34:29;11.90;55.50
48043;DHT22;33988;47.992;8.820;2023-12-20T04:36:58;11.90;55.50
48043;DHT22;33988;47.992;8.820;2023-12-20T04:39:28;11.90;55.60
48043;DHT22;33988;47.992;8.820;2023-12-20T04:41:55;11.90;55.60
48043;DHT22;33988;47.992;8.820;2023-12-20T04:44:25;11.90;55.60
48043;DHT22;33988;47.992;8.820;2023-12-20T04:46:53;11.90;55.60
48043;DHT22;33988;47.992;8.820;2023-12-20T04:49:20;11.90;55.70
48043;DHT22;33988;47.992;8.820;2023-12-20T04:51:52;11.90;55.70
48043;DHT22;33988;47.992;8.820;2023-12-20T04:54:22;11.90;56.30
48043;DHT22;33988;47.992;8.820;2023-12-20T04:56:49;11.90;55.70
48043;DHT22;33988;47.992;8.820;2023-12-20T04:59:19;11.90;55.80
48043;DHT22;33988;47.992;8.820;2023-12-20T05:01:46;11.90;55.80
48043;DHT22;33988;47.992;8.820;2023-12-20T05:04:13;11.90;55.80
48043;DHT22;33988;47.992;8.820;2023-12-20T05:06:40;11.90;55.80
48043;DHT22;33988;47.992;8.820;2023-12-20T05:09:08;11.90;55.80
48043;DHT22;33988;47.992;8.820;2023-12-20T05:11:35;11.90;55.80
48043;DHT22;33988;47.992;8.820;2023-12-20T05:14:06;11.90;55.80
48043;DHT22;33988;47.992;8.820;2023-12-20T05:16:36;12.00;56.50
48043;DHT22;33988;47.992;8.820;2023-12-20T05:19:05;12.00;55.80
48043;DHT22;33988;47.992;8.820;2023-12-20T05:21:36;11.90;55.80
48043;DHT22;33988;47.992;8.820;2023-12-20T05:24:05;12.00;55.80
48043;DHT22;33988;47.992;8.820;2023-12-20T05:26:32;12.00;55.80
48043;DHT22;33988;47.992;8.820;2023-12-20T05:29:01;12.00;55.70
48043;DHT22;33988;47.992;8.820;2023-12-20T05:31:31;11.90;55.70
48043;DHT22;33988;47.992;8.820;2023-12-20T05:34:03;11.90;55.70
48043;DHT22;33988;47.992;8.820;2023-12-20T05:36:32;11.90;56.20
48043;DHT22;33988;47.992;8.820;2023-12-20T05:38:59;11.70;56.00
48043;DHT22;33988;47.992;8.820;2023-12-20T05:41:26;11.80;55.70
48043;DHT22;33988;47.992;8.820;2023-12-20T05:43:53;11.90;55.70
48043;DHT22;33988;47.992;8.820;2023-12-20T05:46:20;11.90;55.70
48043;DHT22;33988;47.992;8.820;2023-12-20T05:48:50;11.90;56.40
48043;DHT22;33988;47.992;8.820;2023-12-20T05:51:20;11.90;55.80
48043;DHT22;33988;47.992;8.820;2023-12-20T05:53:50;11.90;55.80
48043;DHT22;33988;47.992;8.820;2023-12-20T05:56:17;11.90;55.80
48043;DHT22;33988;47.992;8.820;2023-12-20T05:58:44;11.90;55.80
48043;DHT22;33988;47.992;8.820;2023-12-20T06:01:11;11.90;55.80
48043;DHT22;33988;47.992;8.820;2023-12-20T06:03:41;11.90;55.80
48043;DHT22;33988;47.992;8.820;2023-12-20T06:06:09;11.90;55.80
48043;DHT22;33988;47.992;8.820;2023-12-20T06:08:45;11.90;55.80
48043;DHT22;33988;47.992;8.820;2023-12-20T06:11:12;11.90;55.80
48043;DHT22;33988;47.992;8.820;2023-12-20T06:13:40;11.90;55.80
48043;DHT22;33988;47.992;8.820;2023-12-20T06:16:07;11.90;55.80
48043;DHT22;33988;47.992;8.820;2023-12-20T06:18:37;11.90;55.90
48043;DHT22;33988;47.992;8.820;2023-12-20T06:21:04;11.90;55.90
48043;DHT22;33988;47.992;8.820;2023-12-20T06:23:34;11.90;55.90
48043;DHT22;33988;47.992;8.820;2023-12-20T06:26:01;11.90;55.80
48043;DHT22;33988;47.992;8.820;2023-12-20T06:28:31;11.90;55.80
48043;DHT22;33988;47.992;8.820;2023-12-20T06:31:00;11.90;55.80
48043;DHT22;33988;47.992;8.820;2023-12-20T06:33:28;11.90;55.80
48043;DHT22;33988;47.992;8.820;2023-12-20T06:35:55;11.90;55.90
48043;DHT22;33988;47.992;8.820;2023-12-20T06:38:25;11.90;55.90
48043;DHT22;33988;47.992;8.820;2023-12-20T06:40:52;11.90;55.90
48043;DHT22;33988;47.992;8.820;2023-12-20T06:43:24;11.90;55.90
48043;DHT22;33988;47.992;8.820;2023-12-20T06:46:12;11.70;56.00
48043;DHT22;33988;47.992;8.820;2023-12-20T06:48:41;11.80;55.80
48043;DHT22;33988;47.992;8.820;2023-12-20T06:51:14;11.80;55.80
48043;DHT22;33988;47.992;8.820;2023-12-20T06:53:42;11.80;55.80
48043;DHT22;33988;47.992;8.820;2023-12-20T06:56:10;11.80;55.80
48043;DHT22;33988;47.992;8.820;2023-12-20T06:58:45;11.80;55.80
48043;DHT22;33988;47.992;8.820;2023-12-20T07:01:15;11.80;55.80
48043;DHT22;33988;47.992;8.820;2023-12-20T07:03:43;11.80;55.90
48043;DHT22;33988;47.992;8.820;2023-12-20T07:06:10;11.80;55.90
48043;DHT22;33988;47.992;8.820;2023-12-20T07:08:37;11.90;55.90
48043;DHT22;33988;47.992;8.820;2023-12-20T07:11:07;11.80;55.90
48043;DHT22;33988;47.992;8.820;2023-12-20T07:13:34;11.80;55.90
48043;DHT22;33988;47.992;8.820;2023-12-20T07:16:03;11.80;55.90
48043;DHT22;33988;47.992;8.820;2023-12-20T07:18:33;11.80;56.00
48043;DHT22;33988;47.992;8.820;2023-12-20T07:21:02;11.90;56.00
48043;DHT22;33988;47.992;8.820;2023-12-20T07:23:30;11.80;55.90
48043;DHT22;33988;47.992;8.820;2023-12-20T07:25:57;11.80;55.90
48043;DHT22;33988;47.992;8.820;2023-12-20T07:28:23;11.90;56.00
48043;DHT22;33988;47.992;8.820;2023-12-20T07:30:51;11.90;56.00
48043;DHT22;33988;47.992;8.820;2023-12-20T07:33:18;11.90;56.00
48043;DHT22;33988;47.992;8.820;2023-12-20T07:35:45;11.80;55.90
48043;DHT22;33988;47.992;8.820;2023-12-20T07:38:12;11.90;56.00
48043;DHT22;33988;47.992;8.820;2023-12-20T07:40:39;11.80;55.90
48043;DHT22;33988;47.992;8.820;2023-12-20T07:43:06;11.90;56.00
48043;DHT22;33988;47.992;8.820;2023-12-20T07:45:33;11.80;56.00
48043;DHT22;33988;47.992;8.820;2023-12-20T07:48:00;11.90;56.10
48043;DHT22;33988;47.992;8.820;2023-12-20T07:50:27;11.80;56.00
48043;DHT22;33988;47.992;8.820;2023-12-20T07:52:54;11.80;56.00
48043;DHT22;33988;47.992;8.820;2023-12-20T07:55:21;11.90;56.10
48043;DHT22;33988;47.992;8.820;2023-12-20T07:57:49;11.80;56.00
48043;DHT22;33988;47.992;8.820;2023-12-20T08:00:17;11.80;56.00
48043;DHT22;33988;47.992;8.820;2023-12-20T08:02:44;11.80;56.00
48043;DHT22;33988;47.992;8.820;2023-12-20T08:05:11;11.80;56.10
48043;DHT22;33988;47.992;8.820;2023-12-20T08:07:38;11.80;56.10
48043;DHT22;33988;47.992;8.820;2023-12-20T08:10:05;11.80;56.20
48043;DHT22;33988;47.992;8.820;2023-12-20T08:12:33;11.80;56.20
48043;DHT22;33988;47.992;8.820;2023-12-20T08:15:02;11.80;56.20
48043;DHT22;33988;47.992;8.820;2023-12-20T08:17:30;11.80;56.20
48043;DHT22;33988;47.992;8.820;2023-12-20T08:19:59;11.90;56.30
48043;DHT22;33988;47.992;8.820;2023-12-20T08:22:30;11.90;56.30
48043;DHT22;33988;47.992;8.820;2023-12-20T08:24:57;11.90;56.30
48043;DHT22;33988;47.992;8.820;2023-12-20T08:27:26;11.90;56.30
48043;DHT22;33988;47.992;8.820;2023-12-20T08:29:56;11.90;56.30
48043;DHT22;33988;47.992;8.820;2023-12-20T08:32:25;11.90;56.30
48043;DHT22;33988;47.992;8.820;2023-12-20T08:34:53;11.90;56.30
48043;DHT22;33988;47.992;8.820;2023-12-20T08:37:23;11.90;56.40
48043;DHT22;33988;47.992;8.820;2023-12-20T08:39:53;11.90;56.40
48043;DHT22;33988;47.992;8.820;2023-12-20T08:42:20;11.90;56.40
48043;DHT22;33988;47.992;8.820;2023-12-20T08:44:47;12.00;56.40
48043;DHT22;33988;47.992;8.820;2023-12-20T08:47:16;12.00;56.40
48043;DHT22;33988;47.992;8.820;2023-12-20T08:49:44;12.00;56.40
48043;DHT22;33988;47.992;8.820;2023-12-20T08:52:13;12.00;56.40
48043;DHT22;33988;47.992;8.820;2023-12-20T08:54:43;12.00;56.40
48043;DHT22;33988;47.992;8.820;2023-12-20T08:57:12;12.00;56.40
48043;DHT22;33988;47.992;8.820;2023-12-20T08:59:39;12.00;56.40
48043;DHT22;33988;47.992;8.820;2023-12-20T09:02:08;12.10;56.50
48043;DHT22;33988;47.992;8.820;2023-12-20T09:04:35;12.10;56.50
48043;DHT22;33988;47.992;8.820;2023-12-20T09:07:02;12.10;56.60
48043;DHT22;33988;47.992;8.820;2023-12-20T09:09:29;12.10;56.60
48043;DHT22;33988;47.992;8.820;2023-12-20T09:11:59;12.10;56.60
48043;DHT22;33988;47.992;8.820;2023-12-20T09:14:26;12.10;56.60
48043;DHT22;33988;47.992;8.820;2023-12-20T09:16:55;12.10;56.60
48043;DHT22;33988;47.992;8.820;2023-12-20T09:19:25;12.10;56.60
48043;DHT22;33988;47.992;8.820;2023-12-20T09:21:54;12.10;56.60
48043;DHT22;33988;47.992;8.820;2023-12-20T09:24:21;12.20;56.70
48043;DHT22;33988;47.992;8.820;2023-12-20T09:26:48;12.20;56.70
48043;DHT22;33988;47.992;8.820;2023-12-20T09:29:17;12.20;56.70
48043;DHT22;33988;47.992;8.820;2023-12-20T09:31:45;12.20;56.70
48043;DHT22;33988;47.992;8.820;2023-12-20T09:34:15;12.20;56.70
48043;DHT22;33988;47.992;8.820;2023-12-20T09:36:45;12.20;56.80
48043;DHT22;33988;47.992;8.820;2023-12-20T09:39:15;12.30;56.80
48043;DHT22;33988;47.992;8.820;2023-12-20T09:42:07;12.30;56.70
48043;DHT22;33988;47.992;8.820;2023-12-20T09:44:37;12.20;56.80
48043;DHT22;33988;47.992;8.820;2023-12-20T09:47:08;12.30;56.80
48043;DHT22;33988;47.992;8.820;2023-12-20T09:49:35;12.30;56.70
48043;DHT22;33988;47.992;8.820;2023-12-20T09:52:10;12.30;56.80
48043;DHT22;33988;47.992;8.820;2023-12-20T09:54:37;12.40;57.00
48043;DHT22;33988;47.992;8.820;2023-12-20T09:57:05;12.40;57.00
48043;DHT22;33988;47.992;8.820;2023-12-20T09:59:34;12.40;57.00
48043;DHT22;33988;47.992;8.820;2023-12-20T10:02:01;12.50;57.00
48043;DHT22;33988;47.992;8.820;2023-12-20T10:04:32;12.50;57.00
48043;DHT22;33988;47.992;8.820;2023-12-20T10:07:04;12.50;57.00
48043;DHT22;33988;47.992;8.820;2023-12-20T10:09:34;12.50;56.90
48043;DHT22;33988;47.992;8.820;2023-12-20T10:12:01;12.60;57.00
48043;DHT22;33988;47.992;8.820;2023-12-20T10:14:32;12.60;57.00
48043;DHT22;33988;47.992;8.820;2023-12-20T10:17:03;12.70;56.90
48043;DHT22;33988;47.992;8.820;2023-12-20T10:19:31;12.60;56.90
48043;DHT22;33988;47.992;8.820;2023-12-20T10:22:00;12.70;57.00
48043;DHT22;33988;47.992;8.820;2023-12-20T10:24:29;12.70;57.10
48043;DHT22;33988;47.992;8.820;2023-12-20T10:29:37;12.80;57.10
48043;DHT22;33988;47.992;8.820;2023-12-20T10:32:24;12.80;57.10
48043;DHT22;33988;47.992;8.820;2023-12-20T10:34:53;12.80;57.10
48043;DHT22;33988;47.992;8.820;2023-12-20T10:37:21;12.90;57.00
48043;DHT22;33988;47.992;8.820;2023-12-20T10:39:53;12.90;56.90
48043;DHT22;33988;47.992;8.820;2023-12-20T10:42:26;12.90;57.30
48043;DHT22;33988;47.992;8.820;2023-12-20T10:44:58;12.90;56.40
48043;DHT22;33988;47.992;8.820;2023-12-20T10:47:26;12.90;56.30
48043;DHT22;33988;47.992;8.820;2023-12-20T10:49:54;12.90;56.30
48043;DHT22;33988;47.992;8.820;2023-12-20T10:52:23;12.90;56.30
48043;DHT22;33988;47.992;8.820;2023-12-20T10:54:54;12.90;56.10
48043;DHT22;33988;47.992;8.820;2023-12-20T10:57:21;12.90;56.10
48043;DHT22;33988;47.992;8.820;2023-12-20T10:59:52;12.90;56.10
48043;DHT22;33988;47.992;8.820;2023-12-20T11:02:22;12.80;56.00
48043;DHT22;33988;47.992;8.820;2023-12-20T11:08:15;12.80;55.80
48043;DHT22;33988;47.992;8.820;2023-12-20T11:11:02;12.60;55.70
48043;DHT22;33988;47.992;8.820;2023-12-20T11:13:34;12.60;55.70
48043;DHT22;33988;47.992;8.820;2023-12-20T11:16:06;12.70;55.80
48043;DHT22;33988;47.992;8.820;2023-12-20T11:18:34;12.60;55.80
48043;DHT22;33988;47.992;8.820;2023-12-20T11:21:07;12.60;55.90
48043;DHT22;33988;47.992;8.820;2023-12-20T11:23:37;12.60;56.00
48043;DHT22;33988;47.992;8.820;2023-12-20T11:26:04;12.60;56.00
48043;DHT22;33988;47.992;8.820;2023-12-20T11:28:33;12.60;55.90
48043;DHT22;33988;47.992;8.820;2023-12-20T11:31:03;12.60;56.00
48043;DHT22;33988;47.992;8.820;2023-12-20T11:33:36;12.60;55.80
48043;DHT22;33988;47.992;8.820;2023-12-20T11:36:06;12.60;55.80
48043;DHT22;33988;47.992;8.820;2023-12-20T11:38:58;12.60;55.70
48043;DHT22;33988;47.992;8.820;2023-12-20T11:41:29;12.50;55.60
48043;DHT22;33988;47.992;8.820;2023-12-20T11:43:58;12.60;55.60
48043;DHT22;33988;47.992;8.820;2023-12-20T11:46:28;12.60;55.60
48043;DHT22;33988;47.992;8.820;2023-12-20T11:48:55;12.60;55.50
48043;DHT22;33988;47.992;8.820;2023-12-20T11:51:22;12.60;55.50
48043;DHT22;33988;47.992;8.820;2023-12-20T11:53:53;12.50;55.40
48043;DHT22;33988;47.992;8.820;2023-12-20T11:56:20;12.50;55.40
48043;DHT22;33988;47.992;8.820;2023-12-20T11:58:50;12.50;55.40
48043;DHT22;33988;47.992;8.820;2023-12-20T12:01:19;12.50;55.30
48043;DHT22;33988;47.992;8.820;2023-12-20T12:03:48;12.50;55.40
48043;DHT22;33988;47.992;8.820;2023-12-20T12:06:37;12.50;55.30
48043;DHT22;33988;47.992;8.820;2023-12-20T12:09:04;12.50;55.40
48043;DHT22;33988;47.992;8.820;2023-12-20T12:11:31;12.50;55.20
48043;DHT22;33988;47.992;8.820;2023-12-20T12:13:59;12.50;55.10
48043;DHT22;33988;47.992;8.820;2023-12-20T12:16:26;12.50;55.10
48043;DHT22;33988;47.992;8.820;2023-12-20T12:18:57;12.40;55.10
48043;DHT22;33988;47.992;8.820;2023-12-20T12:21:24;12.40;55.10
48043;DHT22;33988;47.992;8.820;2023-12-20T12:24:09;12.40;55.10
48043;DHT22;33988;47.992;8.820;2023-12-20T12:26:36;12.40;55.00
48043;DHT22;33988;47.992;8.820;2023-12-20T12:29:07;12.40;55.00
48043;DHT22;33988;47.992;8.820;2023-12-20T12:31:34;12.40;54.80
48043;DHT22;33988;47.992;8.820;2023-12-20T12:34:04;12.40;54.80
48043;DHT22;33988;47.992;8.820;2023-12-20T12:36:31;12.40;54.70
48043;DHT22;33988;47.992;8.820;2023-12-20T12:39:04;12.40;54.50
48043;DHT22;33988;47.992;8.820;2023-12-20T12:41:31;12.30;54.20
48043;DHT22;33988;47.992;8.820;2023-12-20T12:44:01;12.30;55.00
48043;DHT22;33988;47.992;8.820;2023-12-20T12:46:43;12.30;54.20
48043;DHT22;33988;47.992;8.820;2023-12-20T12:49:11;12.20;54.20
48043;DHT22;33988;47.992;8.820;2023-12-20T12:51:38;12.20;54.20
48043;DHT22;33988;47.992;8.820;2023-12-20T12:54:12;12.20;54.20
48043;DHT22;33988;47.992;8.820;2023-12-20T12:56:40;12.20;54.10
48043;DHT22;33988;47.992;8.820;2023-12-20T12:59:09;12.10;54.00
48043;DHT22;33988;47.992;8.820;2023-12-20T13:01:36;12.10;54.00
48043;DHT22;33988;47.992;8.820;2023-12-20T13:04:03;12.10;53.80
48043;DHT22;33988;47.992;8.820;2023-12-20T13:06:33;12.10;53.70
48043;DHT22;33988;47.992;8.820;2023-12-20T13:09:00;12.10;53.70
48043;DHT22;33988;47.992;8.820;2023-12-20T13:11:27;12.10;53.70
48043;DHT22;33988;47.992;8.820;2023-12-20T13:13:57;12.10;53.60
48043;DHT22;33988;47.992;8.820;2023-12-20T13:16:26;12.10;53.40
48043;DHT22;33988;47.992;8.820;2023-12-20T13:18:53;12.00;53.20
48043;DHT22;33988;47.992;8.820;2023-12-20T13:21:26;12.00;53.10
48043;DHT22;33988;47.992;8.820;2023-12-20T13:23:56;12.00;53.10
48043;DHT22;33988;47.992;8.820;2023-12-20T13:26:25;12.00;53.10
48043;DHT22;33988;47.992;8.820;2023-12-20T13:28:56;11.90;53.00
48043;DHT22;33988;47.992;8.820;2023-12-20T13:31:23;11.90;53.10
48043;DHT22;33988;47.992;8.820;2023-12-20T13:33:53;11.90;53.00
48043;DHT22;33988;47.992;8.820;2023-12-20T13:36:22;11.90;52.90
48043;DHT22;33988;47.992;8.820;2023-12-20T13:38:51;11.90;52.90
48043;DHT22;33988;47.992;8.820;2023-12-20T13:41:19;11.70;52.90
48043;DHT22;33988;47.992;8.820;2023-12-20T13:43:46;11.80;53.10
48043;DHT22;33988;47.992;8.820;2023-12-20T13:46:13;11.80;53.00
48043;DHT22;33988;47.992;8.820;2023-12-20T13:48:43;11.80;52.90
48043;DHT22;33988;47.992;8.820;2023-12-20T13:51:10;11.80;52.90
48043;DHT22;33988;47.992;8.820;2023-12-20T13:53:37;11.80;52.90
48043;DHT22;33988;47.992;8.820;2023-12-20T13:56:05;11.80;52.80
48043;DHT22;33988;47.992;8.820;2023-12-20T13:58:32;11.80;52.70
48043;DHT22;33988;47.992;8.820;2023-12-20T14:01:03;11.80;52.70
48043;DHT22;33988;47.992;8.820;2023-12-20T14:03:30;11.80;52.70
48043;DHT22;33988;47.992;8.820;2023-12-20T14:05:57;11.80;52.70
48043;DHT22;33988;47.992;8.820;2023-12-20T14:08:24;11.80;52.70
48043;DHT22;33988;47.992;8.820;2023-12-20T14:10:51;11.80;52.70
48043;DHT22;33988;47.992;8.820;2023-12-20T14:13:18;11.90;52.80
48043;DHT22;33988;47.992;8.820;2023-12-20T14:15:45;11.80;52.70
48043;DHT22;33988;47.992;8.820;2023-12-20T14:18:16;11.80;52.60
48043;DHT22;33988;47.992;8.820;2023-12-20T14:20:45;11.90;52.70
48043;DHT22;33988;47.992;8.820;2023-12-20T14:23:14;11.80;52.60
48043;DHT22;33988;47.992;8.820;2023-12-20T14:25:41;11.80;52.70
48043;DHT22;33988;47.992;8.820;2023-12-20T14:28:18;11.80;52.70
48043;DHT22;33988;47.992;8.820;2023-12-20T14:30:46;11.90;52.70
48043;DHT22;33988;47.992;8.820;2023-12-20T14:33:13;11.80;52.60
48043;DHT22;33988;47.992;8.820;2023-12-20T14:35:40;11.80;52.50
48043;DHT22;33988;47.992;8.820;2023-12-20T14:38:11;11.80;52.60
48043;DHT22;33988;47.992;8.820;2023-12-20T14:40:42;11.90;52.60
48043;DHT22;33988;47.992;8.820;2023-12-20T14:43:08;11.90;52.50
48043;DHT22;33988;47.992;8.820;2023-12-20T14:45:40;11.80;52.50
48043;DHT22;33988;47.992;8.820;2023-12-20T14:48:07;11.80;52.50
48043;DHT22;33988;47.992;8.820;2023-12-20T14:50:36;11.80;52.40
48043;DHT22;33988;47.992;8.820;2023-12-20T14:53:06;11.90;52.40
48043;DHT22;33988;47.992;8.820;2023-12-20T14:55:34;11.80;52.30
48043;DHT22;33988;47.992;8.820;2023-12-20T14:58:04;11.80;52.30
48043;DHT22;33988;47.992;8.820;2023-12-20T15:00:31;11.80;52.30
48043;DHT22;33988;47.992;8.820;2023-12-20T15:02:58;11.80;52.30
48043;DHT22;33988;47.992;8.820;2023-12-20T15:05:27;11.80;52.40
48043;DHT22;33988;47.992;8.820;2023-12-20T15:07:54;11.80;52.40
48043;DHT22;33988;47.992;8.820;2023-12-20T15:10:23;11.80;52.30
48043;DHT22;33988;47.992;8.820;2023-12-20T15:12:50;11.80;52.20
48043;DHT22;33988;47.992;8.820;2023-12-20T15:15:17;11.80;52.20
48043;DHT22;33988;47.992;8.820;2023-12-20T15:17:45;11.80;52.20
48043;DHT22;33988;47.992;8.820;2023-12-20T15:20:17;11.80;52.10
48043;DHT22;33988;47.992;8.820;2023-12-20T15:22:44;11.80;52.10
48043;DHT22;33988;47.992;8.820;2023-12-20T15:25:12;11.70;52.10
48043;DHT22;33988;47.992;8.820;2023-12-20T15:27:46;11.70;52.10
48043;DHT22;33988;47.992;8.820;2023-12-20T15:30:15;11.70;52.10
48043;DHT22;33988;47.992;8.820;2023-12-20T15:32:44;11.70;52.10
48043;DHT22;33988;47.992;8.820;2023-12-20T15:35:11;11.70;52.10
48043;DHT22;33988;47.992;8.820;2023-12-20T15:37:39;11.70;52.10
48043;DHT22;33988;47.992;8.820;2023-12-20T15:40:10;11.70;52.10
48043;DHT22;33988;47.992;8.820;2023-12-20T15:42:38;11.70;52.00
48043;DHT22;33988;47.992;8.820;2023-12-20T15:45:06;11.70;52.10
48043;DHT22;33988;47.992;8.820;2023-12-20T15:47:35;11.70;52.00